Flight Track Log - Related Links

Times and Time Zones

All times are in EDT time to prevent confusion due to time zone crossing. See the N129UP flight status page for this flight to view local times or setup timezone preferences in your user account.

Time Position Orientation Groundspeed Altitude Reporting Facility
EDT Latitude Longitude Course Direction KTS MPH feet Rate Location/Type
Mon 09:44:52 PM 27.9600 -82.6840 27° Northeast 200 230 2,400  Level FlightAware ADS-B
Mon 09:45:22 PM 27.9860 -82.6720 22° Northeast 207 238 4,000 3,382 Climbing FlightAware ADS-B
Mon 09:45:47 PM 28.0100 -82.6810 342° North 218 251 5,500 3,491 Climbing FlightAware ADS-B
Mon 09:46:17 PM 28.0400 -82.6970 335° Northwest 234 269 7,200 3,333 Climbing FlightAware ADS-B
Mon 09:46:32 PM 28.0540 -82.7050 333° Northwest 236 272 8,000 3,450 Climbing FlightAware ADS-B
Mon 09:46:57 PM 28.0790 -82.7190 334° Northwest 235 270 9,500 3,171 Climbing FlightAware ADS-B
Mon 09:47:42 PM 28.1250 -82.7420 336° Northwest 247 284 11,700 2,541 Climbing FlightAware ADS-B
Mon 09:48:22 PM 28.1710 -82.7660 335° Northwest 287 330 13,100 1,694 Climbing FlightAware ADS-B
Mon 09:49:07 PM 28.2330 -82.7970 336° Northwest 352 405 14,100 1,271 Climbing FlightAware ADS-B
Mon 09:49:47 PM 28.2980 -82.8290 337° Northwest 389 448 14,900 1,976 Climbing FlightAware ADS-B
Mon 09:50:32 PM 28.3740 -82.8690 335° Northwest 410 472 16,900 2,612 Climbing FlightAware ADS-B
Mon 09:51:12 PM 28.4440 -82.9040 336° Northwest 419 482 18,600 2,475 Climbing FlightAware ADS-B
Mon 09:51:52 PM 28.5170 -82.9390 337° Northwest 420 483 20,200 2,400 Climbing FlightAware ADS-B
Mon 09:52:32 PM 28.5900 -82.9750 337° Northwest 437 503 21,800 2,329 Climbing FlightAware ADS-B
Mon 09:53:17 PM 28.6770 -83.0100 341° North 444 511 23,500 2,133 Climbing FlightAware ADS-B
Mon 09:54:02 PM 28.7670 -83.0360 346° North 445 512 25,000 1,906 Climbing FlightAware ADS-B
Mon 09:54:42 PM 28.8510 -83.0590 347° North 459 528 26,200 1,725 Climbing FlightAware ADS-B
Mon 09:55:22 PM 28.9350 -83.0820 347° North 465 535 27,300 1,976 Climbing FlightAware ADS-B
Mon 09:56:07 PM 29.0280 -83.1070 347° North 449 517 29,000 2,329 Climbing FlightAware ADS-B
Mon 09:56:47 PM 29.1110 -83.1300 346° North 447 514 30,600 2,329 Climbing FlightAware ADS-B
Mon 09:57:32 PM 29.1990 -83.1550 346° North 428 493 32,300 1,976 Climbing FlightAware ADS-B
Mon 09:58:12 PM 29.2780 -83.1770 346° North 432 497 33,400 1,275 Climbing FlightAware ADS-B
Mon 09:58:52 PM 29.3560 -83.1980 347° North 430 495 34,000 424 Climbing FlightAware ADS-B
Mon 09:59:37 PM 29.4470 -83.2240 346° North 443 510 34,000  Level FlightAware ADS-B
Mon 10:00:17 PM 29.5250 -83.2450 347° North 433 498 34,000  Level FlightAware ADS-B
Mon 10:01:02 PM 29.6130 -83.2690 347° North 427 491 34,000  Level FlightAware ADS-B
Mon 10:01:42 PM 29.6930 -83.2910 347° North 434 499 34,000  Level FlightAware ADS-B
Mon 10:02:22 PM 29.7690 -83.3130 346° North 434 499 34,000  Level FlightAware ADS-B
Mon 10:03:07 PM 29.8570 -83.3370 347° North 427 491 34,000  Level FlightAware ADS-B
Mon 10:03:47 PM 29.9290 -83.3570 346° North 428 493 34,000  Level FlightAware ADS-B
Mon 10:04:27 PM 30.0090 -83.3800 346° North 428 493 34,000  Level FlightAware ADS-B
Mon 10:05:22 PM 30.1140 -83.4090 347° North 428 493 34,000  Level FlightAware ADS-B
Mon 10:06:02 PM 30.1790 -83.4280 346° North 428 493 34,000  Level FlightAware ADS-B
Mon 10:06:57 PM 30.2970 -83.4610 346° North 432 497 34,000  Level FlightAware ADS-B
Mon 10:07:42 PM 30.3760 -83.4840 346° North 432 497 34,000  Level FlightAware ADS-B
Mon 10:08:17 PM 30.4610 -83.5070 347° North 433 498 34,000  Level FlightAware ADS-B
Mon 10:09:12 PM 30.5660 -83.5370 346° North 433 498 34,000  Level FlightAware ADS-B
Mon 10:10:12 PM 30.6820 -83.5700 346° North 433 498 34,000  Level FlightAware ADS-B
Mon 10:11:27 PM 30.7610 -83.5920 347° North 433 498 34,000  Level FlightAware ADS-B
Mon 10:12:07 PM 30.8270 -83.6120 345° North 433 498 34,000  Level FlightAware ADS-B
Mon 10:12:52 PM 31.0000 -83.6600 347° North 433 498 34,000  Level FlightAware ADS-B
Mon 10:13:32 PM 31.0700 -83.6810 346° North 433 498 34,000  Level FlightAware ADS-B
Mon 10:14:07 PM 31.0120 -83.6640 166° South 433 498 34,000  Level FlightAware ADS-B
Mon 10:14:52 PM 31.0930 -83.6880 346° North 433 498 34,000  Level FlightAware ADS-B
Mon 10:15:42 PM 31.1760 -83.7120 346° North 433 498 34,000  Level FlightAware ADS-B
Mon 10:16:22 PM 31.2420 -83.7310 346° North 433 498 34,000  Level FlightAware ADS-B
Mon 10:17:02 PM 31.3080 -83.7500 346° North 433 498 34,000  Level FlightAware ADS-B
Mon 10:17:42 PM 31.3740 -83.7690 346° North 433 498 34,000  Level FlightAware ADS-B
Mon 10:18:32 PM 31.4560 -83.7940 345° North 433 498 34,000  Level FlightAware ADS-B
Mon 10:19:12 PM 31.5230 -83.8130 346° North 433 498 34,000  Level FlightAware ADS-B
Mon 10:19:52 PM 31.5890 -83.8320 346° North 433 498 34,000  Level FlightAware ADS-B
Mon 10:20:37 PM 31.6550 -83.8520 346° North 433 498 34,000  Level FlightAware ADS-B
Mon 10:21:12 PM 31.7210 -83.8710 346° North 433 498 34,000  Level FlightAware ADS-B
Mon 10:21:52 PM 31.7870 -83.8900 346° North 433 498 34,000  Level FlightAware ADS-B
Mon 10:22:42 PM 31.8690 -83.9150 345° North 433 498 34,000  Level FlightAware ADS-B
Mon 10:23:22 PM 31.9360 -83.9340 346° North 433 498 34,000  Level FlightAware ADS-B
Mon 10:24:02 PM 32.0020 -83.9530 346° North 433 498 34,000  Level FlightAware ADS-B
Mon 10:27:47 PM 32.7350 -84.1670 346° North 435 501 34,000  Level FlightAware ADS-B
Mon 10:28:32 PM 32.8270 -84.1930 347° North 433 498 34,000  Level FlightAware ADS-B
Mon 10:29:12 PM 32.9030 -84.2160 346° North 432 497 34,000  Level FlightAware ADS-B
Mon 10:29:57 PM 32.9920 -84.2430 346° North 434 499 34,000  Level FlightAware ADS-B
Mon 10:32:17 PM 33.2660 -84.3250 346° North 434 499 34,000  Level FlightAware ADS-B
Mon 10:32:57 PM 33.3400 -84.3470 346° North 433 498 34,000  Level FlightAware ADS-B
Mon 10:33:22 PM 33.4018 -84.3662 345° North 432 497 34,000  Level FlightAware ADS-B
Mon 10:33:52 PM 33.4613 -84.3839 346° North 431 496 34,000  Level FlightAware ADS-B
Mon 10:34:22 PM 33.5080 -84.3980 346° North 432 497 34,000  Level FlightAware ADS-B
Mon 10:34:44 PM 33.5624 -84.4144 346° North 432 497 34,000  Level FlightAware ADS-B
Mon 10:35:17 PM 33.6259 -84.4337 346° North 432 497 34,000  Level FlightAware ADS-B
Mon 10:35:48 PM 33.6859 -84.4503 347° North 436 502 34,000  Level FlightAware ADS-B
Mon 10:36:19 PM 33.7474 -84.4647 349° North 435 501 34,000  Level FlightAware ADS-B
Mon 10:36:50 PM 33.8090 -84.4793 349° North 434 499 34,000  Level FlightAware ADS-B
Mon 10:37:20 PM 33.8693 -84.4937 349° North 434 499 34,000  Level FlightAware ADS-B
Mon 10:37:53 PM 33.9333 -84.5098 348° North 433 498 34,000  Level FlightAware ADS-B
Mon 10:38:26 PM 33.9982 -84.5258 348° North 432 497 34,000  Level FlightAware ADS-B
Mon 10:38:56 PM 34.0573 -84.5404 348° North 432 497 34,000  Level FlightAware ADS-B
Mon 10:39:47 PM 34.1572 -84.5654 348° North 432 497 34,000  Level FlightAware ADS-B
Mon 10:41:01 PM 34.3027 -84.6017 348° North 432 497 34,000  Level FlightAware ADS-B
Mon 10:41:33 PM 34.3671 -84.6174 349° North 435 501 34,000  Level FlightAware ADS-B
Mon 10:42:04 PM 34.4271 -84.6327 348° North 434 499 34,000  Level FlightAware ADS-B
Mon 10:42:34 PM 34.4868 -84.6475 348° North 433 498 34,000  Level FlightAware ADS-B
Mon 10:43:06 PM 34.5500 -84.6633 348° North 433 498 34,000  Level FlightAware ADS-B
Mon 10:43:36 PM 34.6090 -84.6781 348° North 433 498 34,000  Level FlightAware ADS-B
Mon 10:44:07 PM 34.6685 -84.6934 348° North 432 497 34,000  Level FlightAware ADS-B
Mon 10:44:18 PM 34.6914 -84.6987 349° North 434 499 34,000  Level FlightAware ADS-B
Mon 10:44:51 PM 34.7581 -84.7068 354° North 440 506 34,000  Level FlightAware ADS-B
Mon 10:45:26 PM 34.8300 -84.7127 356° North 441 507 34,000  Level FlightAware ADS-B
Mon 10:46:12 PM 34.9170 -84.7200 356° North 434 499 34,000  Level FlightAware ADS-B
Mon 10:46:33 PM 34.9660 -84.7239 356° North 443 510 34,000  Level FlightAware ADS-B
Mon 10:47:04 PM 35.0291 -84.7291 356° North 444 511 34,000  Level FlightAware ADS-B
Mon 10:47:36 PM 35.0953 -84.7346 356° North 446 513 34,000  Level FlightAware ADS-B
Mon 10:48:06 PM 35.1574 -84.7397 356° North 447 514 34,000  Level FlightAware ADS-B
Mon 10:48:36 PM 35.2197 -84.7447 356° North 447 514 34,000  Level FlightAware ADS-B
Mon 10:49:07 PM 35.2825 -84.7500 356° North 448 516 34,000  Level FlightAware ADS-B
Mon 10:49:37 PM 35.3450 -84.7552 356° North 449 517 34,000  Level FlightAware ADS-B
Mon 10:50:07 PM 35.4078 -84.7604 356° North 451 519 34,000  Level FlightAware ADS-B
Mon 10:50:37 PM 35.4715 -84.7655 356° North 453 521 34,000  Level FlightAware ADS-B
Mon 10:51:08 PM 35.5350 -84.7709 356° North 453 521 34,000  Level FlightAware ADS-B
Mon 10:51:39 PM 35.6000 -84.7763 356° North 453 521 34,000  Level FlightAware ADS-B
Mon 10:52:11 PM 35.6686 -84.7821 356° North 453 521 34,000  Level FlightAware ADS-B
Mon 10:52:43 PM 35.7348 -84.7876 356° North 454 522 34,000 -667 Level FlightAware ADS-B
Mon 10:53:14 PM 35.7994 -84.7933 356° North 461 531 33,300 -1,385 Descending FlightAware ADS-B
Mon 10:53:48 PM 35.8739 -84.7995 356° North 463 533 32,500 -1,500 Descending FlightAware ADS-B
Mon 10:54:18 PM 35.9384 -84.8048 356° North 464 534 31,700 -1,475 Descending FlightAware ADS-B
Mon 10:54:49 PM 36.0037 -84.8103 356° North 467 537 31,000 -1,452 Descending FlightAware ADS-B
Mon 10:55:20 PM 36.0726 -84.8160 356° North 470 541 30,200 -968 Descending FlightAware ADS-B
Mon 10:55:51 PM 36.1392 -84.8215 356° North 470 541 30,000 -194 Descending FlightAware ADS-B
Mon 10:56:22 PM 36.2071 -84.8273 356° North 473 544 30,000  Level FlightAware ADS-B
Mon 10:56:53 PM 36.2749 -84.8331 356° North 476 548 30,000  Level FlightAware ADS-B
Mon 10:57:25 PM 36.3450 -84.8391 356° North 478 550 30,000  Level FlightAware ADS-B
Mon 10:57:57 PM 36.4157 -84.8451 356° North 477 549 30,000  Level FlightAware ADS-B
Mon 10:58:45 PM 36.5206 -84.8541 356° North 472 543 30,000 -366 Level FlightAware ADS-B
Mon 10:59:19 PM 36.5939 -84.8601 356° North 443 510 29,500 -1,263 Descending FlightAware ADS-B
Mon 11:00:01 PM 36.6760 -84.8673 356° North 420 483 28,400 -1,667 Descending FlightAware ADS-B
Mon 11:00:31 PM 36.7344 -84.8724 356° North 412 474 27,500 -1,814 Descending FlightAware ADS-B
Mon 11:00:44 PM 36.7591 -84.8742 357° North 411 473 27,100 -1,765 Descending FlightAware ADS-B
Mon 11:00:48 PM 36.7657 -84.8743 359° North 412 474 27,000 -1,800 Descending FlightAware ADS-B
Mon 11:00:54 PM 36.7770 -84.8731 North 415 478 26,800 -1,459 Descending FlightAware ADS-B
Mon 11:01:25 PM 36.8351 -84.8593 11° North 406 467 26,100 -1,672 Descending FlightAware ADS-B
Mon 11:01:55 PM 36.8895 -84.8457 11° North 394 453 25,100 -2,100 Descending FlightAware ADS-B
Mon 11:02:25 PM 36.9431 -84.8320 12° North 389 448 24,000 -2,100 Descending FlightAware ADS-B
Mon 11:02:55 PM 36.9960 -84.8181 12° North 383 441 23,000 -2,066 Descending FlightAware ADS-B
Mon 11:03:26 PM 37.0490 -84.8038 12° North 379 436 21,900 -2,164 Descending FlightAware ADS-B
Mon 11:03:56 PM 37.1009 -84.7909 11° North 371 427 20,800 -1,742 Descending FlightAware ADS-B
Mon 11:04:28 PM 37.1545 -84.7775 11° North 360 414 20,100 -1,714 Descending FlightAware ADS-B
Mon 11:04:59 PM 37.2046 -84.7647 12° North 359 413 19,000 -2,381 Descending FlightAware ADS-B
Mon 11:05:31 PM 37.2561 -84.7516 11° North 350 403 17,600 -1,781 Descending FlightAware ADS-B
Mon 11:06:03 PM 37.3069 -84.7398 10° North 336 387 17,100 -878 Descending FlightAware ADS-B
Mon 11:06:12 PM 37.3192 -84.7387 North 330 380 17,000 174 Descending FlightAware ADS-B
Mon 11:07:12 PM 37.3920 -84.7210 11° North 341 392 17,300 180 Climbing FlightAware ADS-B
Mon 11:07:52 PM 37.4450 -84.7100 North 341 392 17,300  Level FlightAware ADS-B
Mon 11:08:32 PM 37.4980 -84.6980 10° North 341 392 17,300  Level FlightAware ADS-B
Mon 11:09:22 PM 37.5640 -84.6830 10° North 341 392 17,300 -1,327 Level FlightAware ADS-B
Mon 11:14:02 PM 37.8300 -85.1960 303° West 275 316 10,000 -1,436 Descending FlightAware ADS-B
Mon 11:14:27 PM 37.8380 -85.2350 285° West 268 308 10,000 -327 Level FlightAware ADS-B
Mon 11:14:57 PM 37.8430 -85.2800 278° West 269 310 9,700 -655 Descending FlightAware ADS-B
Mon 11:15:22 PM 37.8470 -85.3190 277° West 267 307 9,400 -873 Descending FlightAware ADS-B
Mon 11:15:52 PM 37.8520 -85.3660 278° West 264 304 8,900 -1,091 Descending FlightAware ADS-B
Mon 11:16:17 PM 37.8570 -85.4050 279° West 262 302 8,400 -982 Descending FlightAware ADS-B
Mon 11:16:47 PM 37.8620 -85.4510 278° West 259 298 8,000 -900 Descending FlightAware ADS-B
Mon 11:17:17 PM 37.8670 -85.4930 279° West 254 292 7,500 -982 Descending FlightAware ADS-B
Mon 11:17:42 PM 37.8710 -85.5310 278° West 252 290 7,100 -982 Descending FlightAware ADS-B
Mon 11:18:12 PM 37.8810 -85.5730 287° West 257 296 6,600 -1,000 Descending FlightAware ADS-B
Mon 11:18:42 PM 37.9040 -85.6070 311° West 258 297 6,100 -655 Descending FlightAware ADS-B
Mon 11:19:07 PM 37.9250 -85.6360 313° West 258 297 6,000 -109 Descending FlightAware ADS-B
Mon 11:19:37 PM 37.9480 -85.6680 312° West 257 296 6,000  Level FlightAware ADS-B
Mon 11:20:02 PM 37.9690 -85.6990 311° West 259 298 6,000  Level FlightAware ADS-B
Mon 11:20:32 PM 37.9930 -85.7320 313° West 262 302 6,000  Level FlightAware ADS-B
Mon 11:21:02 PM 38.0180 -85.7680 311° West 264 304 6,000  Level FlightAware ADS-B
Mon 11:21:27 PM 38.0370 -85.7940 313° West 264 304 6,000  Level FlightAware ADS-B
Mon 11:21:57 PM 38.0680 -85.8220 325° Northwest 279 321 6,000  Level FlightAware ADS-B
Mon 11:22:22 PM 38.1010 -85.8350 343° North 281 323 6,000  Level FlightAware ADS-B
Mon 11:22:52 PM 38.1380 -85.8490 343° North 279 321 6,000  Level FlightAware ADS-B
Mon 11:23:17 PM 38.1670 -85.8590 345° North 256 295 6,000 -327 Level FlightAware ADS-B
Mon 11:23:47 PM 38.2000 -85.8700 345° North 243 280 5,700 -700 Descending FlightAware ADS-B
Mon 11:24:17 PM 38.2320 -85.8810 345° North 234 269 5,300 -982 Descending FlightAware ADS-B
Mon 11:24:42 PM 38.2580 -85.8900 345° North 228 262 4,800 -1,309 Descending FlightAware ADS-B
Mon 11:25:12 PM 38.2900 -85.9020 344° North 230 265 4,100 -873 Descending FlightAware ADS-B
Mon 11:25:37 PM 38.3150 -85.9110 344° North 232 267 4,000 -109 Descending FlightAware ADS-B
Mon 11:26:07 PM 38.3450 -85.9220 344° North 238 274 4,000  Level FlightAware ADS-B
Mon 11:26:17 PM 38.3540 -85.9230 355° North 245 282 4,000 -1,200 Level FlightAware ADS-B
Mon 11:26:47 PM 38.3850 -85.8980 32° Northeast 241 277 3,200 -1,091 Descending FlightAware ADS-B
Mon 11:27:12 PM 38.3920 -85.8660 74° East 210 242 3,000 -267 Descending FlightAware ADS-B
Mon 11:27:32 PM 38.3840 -85.8460 117° Southeast 175 201 3,000  Level FlightAware ADS-B
Mon 11:27:57 PM 38.3720 -85.8270 129° Southeast 167 192 3,000  Level FlightAware ADS-B
Mon 11:28:27 PM 38.3540 -85.8080 140° Southeast 167 192 3,000  Level FlightAware ADS-B
Mon 11:28:42 PM 38.3430 -85.8010 153° Southeast 162 186 3,000  Level FlightAware ADS-B
Mon 11:29:07 PM 38.3270 -85.7950 164° South 161 185 3,000 -218 Level FlightAware ADS-B
Mon 11:29:37 PM 38.3050 -85.7880 166° South 155 178 2,800 -600 Descending FlightAware ADS-B
Mon 11:30:07 PM 38.2840 -85.7810 165° South 148 170 2,400 -764 Descending FlightAware ADS-B
Mon 11:30:32 PM 38.2680 -85.7760 166° South 138 159 2,100 -655 Descending FlightAware ADS-B
Mon 11:31:02 PM 38.2510 -85.7700 165° South 114 131 1,800 -545 Descending FlightAware ADS-B
Mon 11:31:27 PM 38.2390 -85.7660 165° South 105 121 1,600 -545 Descending FlightAware ADS-B
Mon 11:31:57 PM 38.2250 -85.7610 164° South 107 123 1,300 -600 Descending FlightAware ADS-B
Mon 11:32:27 PM 38.2090 -85.7560 166° South 115 132 1,000 -600 Descending FlightAware ADS-B
Mon 11:32:57 PM 38.1940 -85.7510 165° South 119 137 700 -655 Descending FlightAware ADS-B
Mon 11:33:22 PM 38.1810 -85.7470 166° South 122 140 400 -720 Descending FlightAware ADS-B

Login

Don't have an account? Register now (free) for customized features, flight alerts, and more!